Terminal Aerodrome Forecast
Issued by NWS

Home | Current Version | Previous Version | Text Only | Print | Product List | Glossary On
Versions: 1 2 3 4 5 6 7 8 9 10 11 12
000
FTAK31 PAJN 231700
TAFAWG
TAF
PAWG 231720Z 2318/2418 33005KT P6SM -SHRA BKN040 OVC080
     FM240000 30006KT P6SM VCSH SCT050 BKN100
     FM240400 VRB03KT P6SM FEW005 SCT100
     FM241500 VRB03KT P6SM FEW005 SCT050 BKN100
      AMD LTD TO CLD VIS AND WIND 2406/2415=

USA.gov is the U.S. government's official web portal to all federal, state and local government web resources and services.